Nancy Ann — WDH3524 — position and weather

sailwx.info

Track history (hours):
 
Tides and Currents Weather Stations Pressure Air Temp Water Temp Dewpoint Dewpoint Depression Visibility Wind Speed Wind Dir Waves Ship Positions

Nancy Ann

Owner: Mark Bernert Tugboat Company, St. Helens, OR. More information available from US FCC via Universal Licensing System and Coast Guard Vessel Documentation Center.

Last reported at 2017-Nov-22 21:11 UTC. Time now 2017-Nov-23 11:11 UTC.
Position N 45°48' W 122°51'.

Type: Tug. MMSI: 338205428.

Date/timePositionNaut miles runAvg speedWind from/ knotsBaromVisibWave heightAir tempDewpointWater temp
2017-Nov-22 21:11N 45°48' W 122°51'0 0.0
2017-Nov-22 20:48N 45°48' W 122°51'1 3.1
2017-Nov-22 20:30N 45°48' W 122°50'1 1.5
2017-Nov-22 20:01N 45°49' W 122°50'3 5.1
2017-Nov-22 19:30N 45°51' W 122°48'  
2017-Nov-19 04:41N 45°48' W 122°51'0 0.2
2017-Nov-19 04:30N 45°48' W 122°51'1 1.5
2017-Nov-19 04:00N 45°48' W 122°50'2 4.7
2017-Nov-19 03:31N 45°50' W 122°49'1 1.8
2017-Nov-19 03:01N 45°50' W 122°47'4 7.6
2017-Nov-19 02:30N 45°47' W 122°46'4 7.4
2017-Nov-19 02:00N 45°43' W 122°46'4 7.1
2017-Nov-19 01:30N 45°39' W 122°46'2 3.3
2017-Nov-19 01:01N 45°39' W 122°44'0 0.0
2017-Nov-18 22:04N 45°39' W 122°44'0 0.0
2017-Nov-18 22:00N 45°39' W 122°44'0 0.3
2017-Nov-18 21:30N 45°39' W 122°44'2 4.4
2017-Nov-18 21:00N 45°40' W 122°46'2 4.6
2017-Nov-18 20:30N 45°42' W 122°46'2 4.6
2017-Nov-18 20:00N 45°45' W 122°46'2 4.5
2017-Nov-18 19:30N 45°47' W 122°47'2 4.4
2017-Nov-18 19:00N 45°49' W 122°48'2 4.2
2017-Nov-18 18:30N 45°51' W 122°47'2 3.8
2017-Nov-18 18:00N 45°50' W 122°49'2 3.4
2017-Nov-18 17:30N 45°48' W 122°50'1 1.8
2017-Nov-18 17:00N 45°48' W 122°51'0 0.0
2017-Nov-18 10:59N 45°48' W 122°51'1 1.4
2017-Nov-18 10:31N 45°48' W 122°50'1 2.5
2017-Nov-18 10:00N 45°47' W 122°48'3 5.7
2017-Nov-18 09:30N 45°45' W 122°50'3 5.8
2017-Nov-18 09:00N 45°42' W 122°52'3 6.0
2017-Nov-18 08:30N 45°39' W 122°50'3 6.0
2017-Nov-18 08:00N 45°37' W 122°47'3 6.9
2017-Nov-18 07:30N 45°34' W 122°44'1 0.1
2017-Nov-18 02:06N 45°34' W 122°44'0 0.0
2017-Nov-18 02:00N 45°34' W 122°44'1 1.2
2017-Nov-18 01:30N 45°34' W 122°44'3 4.4
2017-Nov-18 00:51N 45°36' W 122°47'3 4.5
2017-Nov-18 00:16N 45°38' W 122°49'1 4.6
2017-Nov-18 00:00N 45°39' W 122°51'2 4.4
2017-Nov-17 23:31N 45°41' W 122°52'2 4.7
2017-Nov-17 23:00N 45°44' W 122°52'2 4.0
2017-Nov-17 22:30N 45°45' W 122°49'2 4.7
2017-Nov-17 22:01N 45°47' W 122°48'1 2.4
2017-Nov-17 21:30N 45°48' W 122°50'1 1.6
2017-Nov-17 21:01N 45°48' W 122°51'0 0.0
2017-Nov-17 11:00N 45°48' W 122°51'1 1.6
2017-Nov-17 10:18N 45°48' W 122°49'1 4.0
2017-Nov-17 10:00N 45°48' W 122°48'3 6.0
2017-Nov-17 09:30N 45°45' W 122°50'3 5.3
2017-Nov-17 08:52N 45°42' W 122°52'2 6.1
2017-Nov-17 08:30N 45°40' W 122°51'3 6.0
2017-Nov-17 08:01N 45°37' W 122°49'3 6.8
2017-Nov-17 07:30N 45°35' W 122°45'2 0.3
2017-Nov-17 02:23N 45°34' W 122°44'0 0.1
2017-Nov-17 02:01N 45°34' W 122°44'1 2.4
2017-Nov-17 01:31N 45°35' W 122°45'3 5.1
2017-Nov-17 01:00N 45°37' W 122°47'2 5.0
2017-Nov-17 00:30N 45°39' W 122°50'3 5.2
2017-Nov-17 00:00N 45°41' W 122°52'3 5.4
2017-Nov-16 23:30N 45°43' W 122°52'2 4.8
2017-Nov-16 23:00N 45°45' W 122°49'3 5.6
2017-Nov-16 22:30N 45°48' W 122°48'2 3.4
2017-Nov-16 22:00N 45°48' W 122°50'0 0.3
2017-Nov-16 21:30N 45°48' W 122°51'0 0.0
2017-Nov-16 21:00N 45°48' W 122°51'1 0.7
2017-Nov-16 19:11N 45°48' W 122°49'1 3.5
2017-Nov-16 19:00N 45°48' W 122°50'1 1.3
2017-Nov-16 18:30N 45°48' W 122°51'0 0.0
2017-Nov-16 18:00N 45°48' W 122°51'0 0.0
2017-Nov-15 20:04N 45°48' W 122°51'0 0.6
2017-Nov-15 20:00N 45°48' W 122°51'1 0.4
2017-Nov-15 16:56N 45°48' W 122°49'1 0.1
2017-Nov-15 00:47N 45°48' W 122°51'1 3.0
2017-Nov-15 00:30N 45°48' W 122°50'0 0.1
2017-Nov-14 20:47N 45°48' W 122°49'1 4.4
2017-Nov-14 20:30N 45°48' W 122°51'0 0.0
2017-Nov-14 00:24N 45°48' W 122°51'1 0.5
2017-Nov-13 22:11N 45°48' W 122°49'0 0.6
2017-Nov-13 21:57N 45°48' W 122°49'46 2.2
2017-Nov-13 00:53N 46°12' W 123°46'2 5.7
2017-Nov-13 00:30N 46°14' W 123°44'4 8.9
2017-Nov-13 00:00N 46°16' W 123°38'5 9.6
2017-Nov-12 23:31N 46°16' W 123°31'4 8.7
2017-Nov-12 23:01N 46°14' W 123°26'5 9.6
2017-Nov-12 22:31N 46°09' W 123°23'5 9.7
2017-Nov-12 22:00N 46°09' W 123°16'5 9.8
2017-Nov-12 21:30N 46°11' W 123°10'  
Track history (hours):
 
Tides and Currents Weather Stations Pressure Air Temp Water Temp Dewpoint Dewpoint Depression Visibility Wind Speed Wind Dir Waves Ship Positions

Nancy Ann

Owner: Mark Bernert Tugboat Company, St. Helens, OR. More information available from US FCC via Universal Licensing System and Coast Guard Vessel Documentation Center.

Last reported at 2017-Nov-22 21:11 UTC. Time now 2017-Nov-23 11:11 UTC.
Position N 45°48' W 122°51'.

Type: Tug. MMSI: 338205428.

Date/timePositionNaut miles runAvg speedWind from/ knotsBaromVisibWave heightAir tempDewpointWater temp
2017-Nov-22 21:11N 45°48' W 122°51'0 0.0
2017-Nov-22 20:48N 45°48' W 122°51'1 3.1
2017-Nov-22 20:30N 45°48' W 122°50'1 1.5
2017-Nov-22 20:01N 45°49' W 122°50'3 5.1
2017-Nov-22 19:30N 45°51' W 122°48'  
2017-Nov-19 04:41N 45°48' W 122°51'0 0.2
2017-Nov-19 04:30N 45°48' W 122°51'1 1.5
2017-Nov-19 04:00N 45°48' W 122°50'2 4.7
2017-Nov-19 03:31N 45°50' W 122°49'1 1.8
2017-Nov-19 03:01N 45°50' W 122°47'4 7.6
2017-Nov-19 02:30N 45°47' W 122°46'4 7.4
2017-Nov-19 02:00N 45°43' W 122°46'4 7.1
2017-Nov-19 01:30N 45°39' W 122°46'2 3.3
2017-Nov-19 01:01N 45°39' W 122°44'0 0.0
2017-Nov-18 22:04N 45°39' W 122°44'0 0.0
2017-Nov-18 22:00N 45°39' W 122°44'0 0.3
2017-Nov-18 21:30N 45°39' W 122°44'2 4.4
2017-Nov-18 21:00N 45°40' W 122°46'2 4.6
2017-Nov-18 20:30N 45°42' W 122°46'2 4.6
2017-Nov-18 20:00N 45°45' W 122°46'2 4.5
2017-Nov-18 19:30N 45°47' W 122°47'2 4.4
2017-Nov-18 19:00N 45°49' W 122°48'2 4.2
2017-Nov-18 18:30N 45°51' W 122°47'2 3.8
2017-Nov-18 18:00N 45°50' W 122°49'2 3.4
2017-Nov-18 17:30N 45°48' W 122°50'1 1.8
2017-Nov-18 17:00N 45°48' W 122°51'0 0.0
2017-Nov-18 10:59N 45°48' W 122°51'1 1.4
2017-Nov-18 10:31N 45°48' W 122°50'1 2.5
2017-Nov-18 10:00N 45°47' W 122°48'3 5.7
2017-Nov-18 09:30N 45°45' W 122°50'3 5.8
2017-Nov-18 09:00N 45°42' W 122°52'3 6.0
2017-Nov-18 08:30N 45°39' W 122°50'3 6.0
2017-Nov-18 08:00N 45°37' W 122°47'3 6.9
2017-Nov-18 07:30N 45°34' W 122°44'1 0.1
2017-Nov-18 02:06N 45°34' W 122°44'0 0.0
2017-Nov-18 02:00N 45°34' W 122°44'1 1.2
2017-Nov-18 01:30N 45°34' W 122°44'3 4.4
2017-Nov-18 00:51N 45°36' W 122°47'3 4.5
2017-Nov-18 00:16N 45°38' W 122°49'1 4.6
2017-Nov-18 00:00N 45°39' W 122°51'2 4.4
2017-Nov-17 23:31N 45°41' W 122°52'2 4.7
2017-Nov-17 23:00N 45°44' W 122°52'2 4.0
2017-Nov-17 22:30N 45°45' W 122°49'2 4.7
2017-Nov-17 22:01N 45°47' W 122°48'1 2.4
2017-Nov-17 21:30N 45°48' W 122°50'1 1.6
2017-Nov-17 21:01N 45°48' W 122°51'0 0.0
2017-Nov-17 11:00N 45°48' W 122°51'1 1.6
2017-Nov-17 10:18N 45°48' W 122°49'1 4.0
2017-Nov-17 10:00N 45°48' W 122°48'3 6.0
2017-Nov-17 09:30N 45°45' W 122°50'3 5.3
2017-Nov-17 08:52N 45°42' W 122°52'2 6.1
2017-Nov-17 08:30N 45°40' W 122°51'3 6.0
2017-Nov-17 08:01N 45°37' W 122°49'3 6.8
2017-Nov-17 07:30N 45°35' W 122°45'2 0.3
2017-Nov-17 02:23N 45°34' W 122°44'0 0.1
2017-Nov-17 02:01N 45°34' W 122°44'1 2.4
2017-Nov-17 01:31N 45°35' W 122°45'3 5.1
2017-Nov-17 01:00N 45°37' W 122°47'2 5.0
2017-Nov-17 00:30N 45°39' W 122°50'3 5.2
2017-Nov-17 00:00N 45°41' W 122°52'3 5.4
2017-Nov-16 23:30N 45°43' W 122°52'2 4.8
2017-Nov-16 23:00N 45°45' W 122°49'3 5.6
2017-Nov-16 22:30N 45°48' W 122°48'2 3.4
2017-Nov-16 22:00N 45°48' W 122°50'0 0.3
2017-Nov-16 21:30N 45°48' W 122°51'0 0.0
2017-Nov-16 21:00N 45°48' W 122°51'1 0.7
2017-Nov-16 19:11N 45°48' W 122°49'1 3.5
2017-Nov-16 19:00N 45°48' W 122°50'1 1.3
2017-Nov-16 18:30N 45°48' W 122°51'0 0.0
2017-Nov-16 18:00N 45°48' W 122°51'0 0.0
2017-Nov-15 20:04N 45°48' W 122°51'0 0.6
2017-Nov-15 20:00N 45°48' W 122°51'1 0.4
2017-Nov-15 16:56N 45°48' W 122°49'1 0.1
2017-Nov-15 00:47N 45°48' W 122°51'1 3.0
2017-Nov-15 00:30N 45°48' W 122°50'0 0.1
2017-Nov-14 20:47N 45°48' W 122°49'1 4.4
2017-Nov-14 20:30N 45°48' W 122°51'0 0.0
2017-Nov-14 00:24N 45°48' W 122°51'1 0.5
2017-Nov-13 22:11N 45°48' W 122°49'0 0.6
2017-Nov-13 21:57N 45°48' W 122°49'46 2.2
2017-Nov-13 00:53N 46°12' W 123°46'2 5.7
2017-Nov-13 00:30N 46°14' W 123°44'4 8.9
2017-Nov-13 00:00N 46°16' W 123°38'5 9.6
2017-Nov-12 23:31N 46°16' W 123°31'4 8.7
2017-Nov-12 23:01N 46°14' W 123°26'5 9.6
2017-Nov-12 22:31N 46°09' W 123°23'5 9.7
2017-Nov-12 22:00N 46°09' W 123°16'5 9.8
2017-Nov-12 21:30N 46°11' W 123°10'  

Dump ship's entire track history